sensor_id;sensor_type;location;lat;lon;timestamp;P1;durP1;ratioP1;P2;durP2;ratioP2
27225;SDS011;14732;51.074;3.788;2023-06-14T00:01:02;8.23;;;4.20;;
27225;SDS011;14732;51.074;3.788;2023-06-14T00:03:28;8.60;;;4.22;;
27225;SDS011;14732;51.074;3.788;2023-06-14T00:05:54;5.70;;;4.50;;
27225;SDS011;14732;51.074;3.788;2023-06-14T00:08:20;6.45;;;4.63;;
27225;SDS011;14732;51.074;3.788;2023-06-14T00:10:47;11.13;;;4.60;;
27225;SDS011;14732;51.074;3.788;2023-06-14T00:13:13;8.40;;;5.18;;
27225;SDS011;14732;51.074;3.788;2023-06-14T00:15:39;8.00;;;4.72;;
27225;SDS011;14732;51.074;3.788;2023-06-14T00:18:05;10.65;;;4.85;;
27225;SDS011;14732;51.074;3.788;2023-06-14T00:20:32;8.23;;;4.80;;
27225;SDS011;14732;51.074;3.788;2023-06-14T00:22:59;6.45;;;4.55;;
27225;SDS011;14732;51.074;3.788;2023-06-14T00:25:25;8.02;;;4.93;;
27225;SDS011;14732;51.074;3.788;2023-06-14T00:27:51;9.23;;;5.60;;
27225;SDS011;14732;51.074;3.788;2023-06-14T00:30:17;7.07;;;4.55;;
27225;SDS011;14732;51.074;3.788;2023-06-14T00:32:43;7.15;;;4.90;;
27225;SDS011;14732;51.074;3.788;2023-06-14T00:35:10;9.85;;;5.38;;
27225;SDS011;14732;51.074;3.788;2023-06-14T00:37:36;7.68;;;5.00;;
27225;SDS011;14732;51.074;3.788;2023-06-14T00:40:03;6.07;;;5.10;;
27225;SDS011;14732;51.074;3.788;2023-06-14T00:42:31;7.50;;;5.10;;
27225;SDS011;14732;51.074;3.788;2023-06-14T00:44:57;9.85;;;5.18;;
27225;SDS011;14732;51.074;3.788;2023-06-14T00:47:24;11.82;;;5.40;;
27225;SDS011;14732;51.074;3.788;2023-06-14T00:49:50;10.10;;;5.28;;
27225;SDS011;14732;51.074;3.788;2023-06-14T00:52:17;8.77;;;5.55;;
27225;SDS011;14732;51.074;3.788;2023-06-14T00:54:43;7.43;;;4.97;;
27225;SDS011;14732;51.074;3.788;2023-06-14T00:57:10;5.78;;;5.05;;
27225;SDS011;14732;51.074;3.788;2023-06-14T00:59:40;10.27;;;5.43;;
27225;SDS011;14732;51.074;3.788;2023-06-14T01:02:11;10.23;;;5.30;;
27225;SDS011;14732;51.074;3.788;2023-06-14T01:04:40;9.88;;;5.80;;
27225;SDS011;14732;51.074;3.788;2023-06-14T01:15:38;10.82;;;5.85;;
27225;SDS011;14732;51.074;3.788;2023-06-14T01:18:07;9.88;;;5.70;;
27225;SDS011;14732;51.074;3.788;2023-06-14T01:20:33;7.63;;;5.90;;
27225;SDS011;14732;51.074;3.788;2023-06-14T01:23:06;8.90;;;5.85;;
27225;SDS011;14732;51.074;3.788;2023-06-14T01:25:31;8.45;;;5.43;;
27225;SDS011;14732;51.074;3.788;2023-06-14T01:28:01;11.55;;;6.10;;
27225;SDS011;14732;51.074;3.788;2023-06-14T01:30:35;6.90;;;5.80;;
27225;SDS011;14732;51.074;3.788;2023-06-14T01:33:09;11.18;;;6.10;;
27225;SDS011;14732;51.074;3.788;2023-06-14T01:35:41;8.95;;;5.93;;
27225;SDS011;14732;51.074;3.788;2023-06-14T01:38:09;8.55;;;6.57;;
27225;SDS011;14732;51.074;3.788;2023-06-14T01:40:35;7.00;;;6.13;;
27225;SDS011;14732;51.074;3.788;2023-06-14T01:43:01;8.02;;;5.70;;
27225;SDS011;14732;51.074;3.788;2023-06-14T01:45:29;10.68;;;5.78;;
27225;SDS011;14732;51.074;3.788;2023-06-14T01:47:55;13.05;;;6.65;;
27225;SDS011;14732;51.074;3.788;2023-06-14T01:50:22;9.10;;;6.05;;
27225;SDS011;14732;51.074;3.788;2023-06-14T01:52:48;9.18;;;6.03;;
27225;SDS011;14732;51.074;3.788;2023-06-14T01:55:14;14.65;;;6.15;;
27225;SDS011;14732;51.074;3.788;2023-06-14T01:57:40;10.05;;;6.18;;
27225;SDS011;14732;51.074;3.788;2023-06-14T02:00:06;9.10;;;5.68;;
27225;SDS011;14732;51.074;3.788;2023-06-14T02:02:35;11.60;;;6.03;;
27225;SDS011;14732;51.074;3.788;2023-06-14T02:05:01;10.65;;;6.50;;
27225;SDS011;14732;51.074;3.788;2023-06-14T02:07:27;8.02;;;6.47;;
27225;SDS011;14732;51.074;3.788;2023-06-14T02:09:52;13.00;;;6.53;;
27225;SDS011;14732;51.074;3.788;2023-06-14T02:12:18;10.68;;;6.60;;
27225;SDS011;14732;51.074;3.788;2023-06-14T02:14:43;11.57;;;6.80;;
27225;SDS011;14732;51.074;3.788;2023-06-14T02:17:10;15.55;;;6.10;;
27225;SDS011;14732;51.074;3.788;2023-06-14T02:19:39;6.53;;;5.75;;
27225;SDS011;14732;51.074;3.788;2023-06-14T02:22:05;9.20;;;6.22;;
27225;SDS011;14732;51.074;3.788;2023-06-14T02:24:31;9.07;;;6.07;;
27225;SDS011;14732;51.074;3.788;2023-06-14T02:26:57;9.80;;;6.22;;
27225;SDS011;14732;51.074;3.788;2023-06-14T02:29:23;8.85;;;6.32;;
27225;SDS011;14732;51.074;3.788;2023-06-14T02:31:48;8.98;;;6.05;;
27225;SDS011;14732;51.074;3.788;2023-06-14T02:34:14;7.30;;;6.25;;
27225;SDS011;14732;51.074;3.788;2023-06-14T02:36:42;7.88;;;5.68;;
27225;SDS011;14732;51.074;3.788;2023-06-14T02:39:09;8.25;;;6.00;;
27225;SDS011;14732;51.074;3.788;2023-06-14T02:41:35;9.05;;;6.35;;
27225;SDS011;14732;51.074;3.788;2023-06-14T02:44:01;8.65;;;6.07;;
27225;SDS011;14732;51.074;3.788;2023-06-14T02:46:27;12.68;;;6.20;;
27225;SDS011;14732;51.074;3.788;2023-06-14T02:48:52;8.70;;;6.45;;
27225;SDS011;14732;51.074;3.788;2023-06-14T02:51:18;9.63;;;6.10;;
27225;SDS011;14732;51.074;3.788;2023-06-14T02:53:44;9.60;;;6.20;;
27225;SDS011;14732;51.074;3.788;2023-06-14T02:56:10;7.78;;;6.40;;
27225;SDS011;14732;51.074;3.788;2023-06-14T02:58:36;9.88;;;6.38;;
27225;SDS011;14732;51.074;3.788;2023-06-14T03:01:04;16.10;;;6.25;;
27225;SDS011;14732;51.074;3.788;2023-06-14T03:03:33;8.48;;;6.15;;
27225;SDS011;14732;51.074;3.788;2023-06-14T03:05:58;11.40;;;6.30;;
27225;SDS011;14732;51.074;3.788;2023-06-14T03:08:29;10.68;;;6.15;;
27225;SDS011;14732;51.074;3.788;2023-06-14T03:10:56;9.10;;;6.30;;
27225;SDS011;14732;51.074;3.788;2023-06-14T03:13:22;9.55;;;6.45;;
27225;SDS011;14732;51.074;3.788;2023-06-14T03:15:48;11.30;;;6.47;;
27225;SDS011;14732;51.074;3.788;2023-06-14T03:18:17;8.48;;;6.60;;
27225;SDS011;14732;51.074;3.788;2023-06-14T03:20:42;7.57;;;6.10;;
27225;SDS011;14732;51.074;3.788;2023-06-14T03:23:10;12.02;;;6.35;;
27225;SDS011;14732;51.074;3.788;2023-06-14T03:25:36;11.60;;;6.78;;
27225;SDS011;14732;51.074;3.788;2023-06-14T03:28:03;13.10;;;6.95;;
27225;SDS011;14732;51.074;3.788;2023-06-14T03:30:30;9.50;;;6.43;;
27225;SDS011;14732;51.074;3.788;2023-06-14T03:32:56;12.98;;;6.95;;
27225;SDS011;14732;51.074;3.788;2023-06-14T03:35:26;12.00;;;6.63;;
27225;SDS011;14732;51.074;3.788;2023-06-14T03:37:52;7.80;;;5.90;;
27225;SDS011;14732;51.074;3.788;2023-06-14T03:40:18;8.60;;;6.32;;
27225;SDS011;14732;51.074;3.788;2023-06-14T03:42:45;13.00;;;6.18;;
27225;SDS011;14732;51.074;3.788;2023-06-14T03:45:11;9.52;;;6.47;;
27225;SDS011;14732;51.074;3.788;2023-06-14T03:47:37;13.55;;;6.47;;
27225;SDS011;14732;51.074;3.788;2023-06-14T03:50:03;11.05;;;6.45;;
27225;SDS011;14732;51.074;3.788;2023-06-14T03:52:30;11.75;;;6.60;;
27225;SDS011;14732;51.074;3.788;2023-06-14T03:54:58;10.50;;;6.25;;
27225;SDS011;14732;51.074;3.788;2023-06-14T03:57:25;10.15;;;6.40;;
27225;SDS011;14732;51.074;3.788;2023-06-14T03:59:53;11.30;;;6.85;;
27225;SDS011;14732;51.074;3.788;2023-06-14T04:02:19;9.73;;;7.03;;
27225;SDS011;14732;51.074;3.788;2023-06-14T04:04:45;10.77;;;6.68;;
27225;SDS011;14732;51.074;3.788;2023-06-14T04:07:12;14.38;;;6.45;;
27225;SDS011;14732;51.074;3.788;2023-06-14T04:09:38;9.32;;;6.70;;
27225;SDS011;14732;51.074;3.788;2023-06-14T04:12:06;16.50;;;6.72;;
27225;SDS011;14732;51.074;3.788;2023-06-14T04:14:36;13.90;;;6.47;;
27225;SDS011;14732;51.074;3.788;2023-06-14T04:17:02;9.73;;;6.53;;
27225;SDS011;14732;51.074;3.788;2023-06-14T04:19:30;14.15;;;6.22;;
27225;SDS011;14732;51.074;3.788;2023-06-14T04:21:58;10.95;;;6.35;;
27225;SDS011;14732;51.074;3.788;2023-06-14T04:24:28;10.38;;;6.80;;
27225;SDS011;14732;51.074;3.788;2023-06-14T04:26:57;11.07;;;6.13;;
27225;SDS011;14732;51.074;3.788;2023-06-14T04:29:24;11.75;;;6.60;;
27225;SDS011;14732;51.074;3.788;2023-06-14T04:31:53;14.07;;;6.40;;
27225;SDS011;14732;51.074;3.788;2023-06-14T04:34:25;10.88;;;6.22;;
27225;SDS011;14732;51.074;3.788;2023-06-14T04:36:55;11.77;;;6.28;;
27225;SDS011;14732;51.074;3.788;2023-06-14T04:39:22;13.25;;;6.50;;
27225;SDS011;14732;51.074;3.788;2023-06-14T04:41:48;11.75;;;5.82;;
27225;SDS011;14732;51.074;3.788;2023-06-14T04:44:18;9.55;;;6.15;;
27225;SDS011;14732;51.074;3.788;2023-06-14T04:46:45;10.32;;;6.57;;
27225;SDS011;14732;51.074;3.788;2023-06-14T04:49:14;15.00;;;6.63;;
27225;SDS011;14732;51.074;3.788;2023-06-14T04:51:42;11.07;;;5.80;;
27225;SDS011;14732;51.074;3.788;2023-06-14T04:54:08;8.57;;;6.15;;
27225;SDS011;14732;51.074;3.788;2023-06-14T04:56:40;11.73;;;5.85;;
27225;SDS011;14732;51.074;3.788;2023-06-14T04:59:08;10.27;;;6.13;;
27225;SDS011;14732;51.074;3.788;2023-06-14T05:01:34;12.65;;;5.90;;
27225;SDS011;14732;51.074;3.788;2023-06-14T05:04:02;13.15;;;5.72;;
27225;SDS011;14732;51.074;3.788;2023-06-14T05:06:28;8.25;;;5.82;;
27225;SDS011;14732;51.074;3.788;2023-06-14T05:08:55;9.50;;;5.78;;
27225;SDS011;14732;51.074;3.788;2023-06-14T05:11:21;8.13;;;5.72;;
27225;SDS011;14732;51.074;3.788;2023-06-14T05:13:49;11.00;;;6.15;;
27225;SDS011;14732;51.074;3.788;2023-06-14T05:16:17;14.43;;;5.97;;
27225;SDS011;14732;51.074;3.788;2023-06-14T05:18:44;8.15;;;6.30;;
27225;SDS011;14732;51.074;3.788;2023-06-14T05:21:11;11.50;;;5.88;;
27225;SDS011;14732;51.074;3.788;2023-06-14T05:23:36;8.77;;;5.57;;
27225;SDS011;14732;51.074;3.788;2023-06-14T05:26:02;10.55;;;6.10;;
27225;SDS011;14732;51.074;3.788;2023-06-14T05:28:29;11.82;;;6.45;;
27225;SDS011;14732;51.074;3.788;2023-06-14T05:30:55;10.70;;;5.78;;
27225;SDS011;14732;51.074;3.788;2023-06-14T05:33:21;12.18;;;6.28;;
27225;SDS011;14732;51.074;3.788;2023-06-14T05:35:47;16.98;;;6.20;;
27225;SDS011;14732;51.074;3.788;2023-06-14T05:38:13;7.55;;;6.78;;
27225;SDS011;14732;51.074;3.788;2023-06-14T05:40:39;11.35;;;6.95;;
27225;SDS011;14732;51.074;3.788;2023-06-14T05:43:05;8.38;;;6.53;;
27225;SDS011;14732;51.074;3.788;2023-06-14T05:45:31;10.63;;;6.25;;
27225;SDS011;14732;51.074;3.788;2023-06-14T05:47:56;12.02;;;6.38;;
27225;SDS011;14732;51.074;3.788;2023-06-14T05:50:22;9.77;;;6.80;;
27225;SDS011;14732;51.074;3.788;2023-06-14T05:52:49;11.15;;;6.90;;
27225;SDS011;14732;51.074;3.788;2023-06-14T05:55:15;13.00;;;6.03;;
27225;SDS011;14732;51.074;3.788;2023-06-14T05:57:41;9.07;;;7.13;;
27225;SDS011;14732;51.074;3.788;2023-06-14T06:00:08;10.82;;;6.40;;
27225;SDS011;14732;51.074;3.788;2023-06-14T06:02:45;12.32;;;7.07;;
27225;SDS011;14732;51.074;3.788;2023-06-14T06:05:12;9.38;;;6.63;;
27225;SDS011;14732;51.074;3.788;2023-06-14T06:07:40;9.50;;;6.75;;
27225;SDS011;14732;51.074;3.788;2023-06-14T06:10:06;12.35;;;6.63;;
27225;SDS011;14732;51.074;3.788;2023-06-14T06:12:32;7.63;;;5.50;;
27225;SDS011;14732;51.074;3.788;2023-06-14T06:14:58;10.43;;;6.72;;
27225;SDS011;14732;51.074;3.788;2023-06-14T06:17:25;17.25;;;6.65;;
27225;SDS011;14732;51.074;3.788;2023-06-14T06:19:51;12.23;;;6.43;;
27225;SDS011;14732;51.074;3.788;2023-06-14T06:22:17;11.98;;;6.43;;
27225;SDS011;14732;51.074;3.788;2023-06-14T06:24:42;7.93;;;5.70;;
27225;SDS011;14732;51.074;3.788;2023-06-14T06:27:08;9.77;;;6.63;;
27225;SDS011;14732;51.074;3.788;2023-06-14T06:29:35;7.63;;;5.65;;
27225;SDS011;14732;51.074;3.788;2023-06-14T06:32:01;8.10;;;6.40;;
27225;SDS011;14732;51.074;3.788;2023-06-14T06:34:27;9.48;;;6.30;;
27225;SDS011;14732;51.074;3.788;2023-06-14T06:36:53;11.82;;;6.53;;
27225;SDS011;14732;51.074;3.788;2023-06-14T06:39:19;8.55;;;6.15;;
27225;SDS011;14732;51.074;3.788;2023-06-14T06:41:44;11.88;;;6.78;;
27225;SDS011;14732;51.074;3.788;2023-06-14T06:44:10;8.75;;;6.15;;
27225;SDS011;14732;51.074;3.788;2023-06-14T06:46:36;11.02;;;7.10;;
27225;SDS011;14732;51.074;3.788;2023-06-14T06:49:09;7.05;;;6.25;;
27225;SDS011;14732;51.074;3.788;2023-06-14T06:51:37;11.77;;;6.63;;
27225;SDS011;14732;51.074;3.788;2023-06-14T06:54:07;9.98;;;6.47;;
27225;SDS011;14732;51.074;3.788;2023-06-14T06:56:35;12.00;;;7.20;;
27225;SDS011;14732;51.074;3.788;2023-06-14T06:59:01;16.38;;;6.85;;
27225;SDS011;14732;51.074;3.788;2023-06-14T07:01:27;11.50;;;6.65;;
27225;SDS011;14732;51.074;3.788;2023-06-14T07:03:54;10.75;;;6.22;;
27225;SDS011;14732;51.074;3.788;2023-06-14T07:06:21;9.70;;;6.75;;
27225;SDS011;14732;51.074;3.788;2023-06-14T07:08:48;11.32;;;6.50;;
27225;SDS011;14732;51.074;3.788;2023-06-14T07:11:14;18.58;;;7.40;;
27225;SDS011;14732;51.074;3.788;2023-06-14T07:13:40;11.65;;;6.78;;
27225;SDS011;14732;51.074;3.788;2023-06-14T07:16:05;9.70;;;6.07;;
27225;SDS011;14732;51.074;3.788;2023-06-14T07:18:31;10.48;;;6.20;;
27225;SDS011;14732;51.074;3.788;2023-06-14T07:20:57;12.38;;;6.65;;
27225;SDS011;14732;51.074;3.788;2023-06-14T07:23:23;12.75;;;6.57;;
27225;SDS011;14732;51.074;3.788;2023-06-14T07:25:49;10.60;;;6.25;;
27225;SDS011;14732;51.074;3.788;2023-06-14T07:28:16;7.72;;;6.15;;
27225;SDS011;14732;51.074;3.788;2023-06-14T07:30:43;11.57;;;6.45;;
27225;SDS011;14732;51.074;3.788;2023-06-14T07:33:08;10.48;;;5.82;;
27225;SDS011;14732;51.074;3.788;2023-06-14T07:35:35;8.20;;;5.40;;
27225;SDS011;14732;51.074;3.788;2023-06-14T07:38:00;7.95;;;5.80;;
27225;SDS011;14732;51.074;3.788;2023-06-14T07:40:26;8.20;;;6.63;;
27225;SDS011;14732;51.074;3.788;2023-06-14T07:42:52;9.65;;;6.85;;
27225;SDS011;14732;51.074;3.788;2023-06-14T07:45:19;10.65;;;6.70;;
27225;SDS011;14732;51.074;3.788;2023-06-14T07:47:45;12.35;;;7.10;;
27225;SDS011;14732;51.074;3.788;2023-06-14T07:50:11;10.65;;;7.07;;
27225;SDS011;14732;51.074;3.788;2023-06-14T07:52:38;11.43;;;7.20;;
27225;SDS011;14732;51.074;3.788;2023-06-14T07:55:06;12.20;;;7.00;;
27225;SDS011;14732;51.074;3.788;2023-06-14T07:57:34;9.77;;;6.87;;
27225;SDS011;14732;51.074;3.788;2023-06-14T08:00:00;12.15;;;7.00;;
27225;SDS011;14732;51.074;3.788;2023-06-14T08:02:26;13.40;;;8.30;;
27225;SDS011;14732;51.074;3.788;2023-06-14T08:04:51;14.95;;;8.05;;
27225;SDS011;14732;51.074;3.788;2023-06-14T08:07:25;9.05;;;6.63;;
27225;SDS011;14732;51.074;3.788;2023-06-14T08:09:52;12.00;;;7.55;;
27225;SDS011;14732;51.074;3.788;2023-06-14T08:12:21;16.70;;;6.82;;
27225;SDS011;14732;51.074;3.788;2023-06-14T08:14:48;10.40;;;7.03;;
27225;SDS011;14732;51.074;3.788;2023-06-14T08:17:14;9.10;;;6.65;;
27225;SDS011;14732;51.074;3.788;2023-06-14T08:19:40;10.63;;;6.53;;
27225;SDS011;14732;51.074;3.788;2023-06-14T08:22:06;10.82;;;6.68;;
27225;SDS011;14732;51.074;3.788;2023-06-14T08:24:32;12.38;;;7.78;;
27225;SDS011;14732;51.074;3.788;2023-06-14T08:26:57;10.98;;;6.93;;
27225;SDS011;14732;51.074;3.788;2023-06-14T08:29:26;12.55;;;7.28;;
27225;SDS011;14732;51.074;3.788;2023-06-14T08:31:54;16.35;;;7.78;;
27225;SDS011;14732;51.074;3.788;2023-06-14T08:34:20;13.75;;;7.30;;
27225;SDS011;14732;51.074;3.788;2023-06-14T08:36:45;10.60;;;7.25;;
27225;SDS011;14732;51.074;3.788;2023-06-14T08:39:11;11.60;;;7.05;;
27225;SDS011;14732;51.074;3.788;2023-06-14T08:41:37;9.38;;;6.30;;
27225;SDS011;14732;51.074;3.788;2023-06-14T08:44:04;6.82;;;6.15;;
27225;SDS011;14732;51.074;3.788;2023-06-14T08:46:32;17.15;;;7.22;;
27225;SDS011;14732;51.074;3.788;2023-06-14T08:48:59;7.38;;;6.00;;
27225;SDS011;14732;51.074;3.788;2023-06-14T08:51:28;9.40;;;6.30;;
27225;SDS011;14732;51.074;3.788;2023-06-14T08:54:02;8.98;;;6.40;;
27225;SDS011;14732;51.074;3.788;2023-06-14T08:56:32;12.48;;;6.00;;
27225;SDS011;14732;51.074;3.788;2023-06-14T08:59:02;11.82;;;5.50;;
27225;SDS011;14732;51.074;3.788;2023-06-14T09:01:33;12.52;;;5.70;;
27225;SDS011;14732;51.074;3.788;2023-06-14T09:04:02;9.25;;;5.63;;
27225;SDS011;14732;51.074;3.788;2023-06-14T09:06:30;8.40;;;5.03;;
27225;SDS011;14732;51.074;3.788;2023-06-14T09:08:58;7.55;;;5.18;;
27225;SDS011;14732;51.074;3.788;2023-06-14T09:11:24;10.88;;;5.32;;
27225;SDS011;14732;51.074;3.788;2023-06-14T09:13:52;7.37;;;4.80;;
27225;SDS011;14732;51.074;3.788;2023-06-14T09:16:18;12.23;;;4.95;;
27225;SDS011;14732;51.074;3.788;2023-06-14T09:18:44;10.25;;;5.22;;
27225;SDS011;14732;51.074;3.788;2023-06-14T09:21:16;6.93;;;5.07;;
27225;SDS011;14732;51.074;3.788;2023-06-14T09:23:44;9.13;;;5.30;;
27225;SDS011;14732;51.074;3.788;2023-06-14T09:28:47;9.82;;;5.70;;
27225;SDS011;14732;51.074;3.788;2023-06-14T09:31:14;9.63;;;4.88;;
27225;SDS011;14732;51.074;3.788;2023-06-14T09:33:44;7.93;;;5.05;;
27225;SDS011;14732;51.074;3.788;2023-06-14T09:36:15;8.68;;;5.82;;
27225;SDS011;14732;51.074;3.788;2023-06-14T09:38:43;8.05;;;5.50;;
27225;SDS011;14732;51.074;3.788;2023-06-14T09:41:18;13.57;;;5.32;;
27225;SDS011;14732;51.074;3.788;2023-06-14T09:43:44;6.90;;;5.40;;
27225;SDS011;14732;51.074;3.788;2023-06-14T09:46:12;7.95;;;5.20;;
27225;SDS011;14732;51.074;3.788;2023-06-14T09:48:38;14.32;;;6.10;;
27225;SDS011;14732;51.074;3.788;2023-06-14T09:51:07;7.05;;;5.82;;
27225;SDS011;14732;51.074;3.788;2023-06-14T09:53:36;8.73;;;6.53;;
27225;SDS011;14732;51.074;3.788;2023-06-14T09:56:05;11.93;;;5.88;;
27225;SDS011;14732;51.074;3.788;2023-06-14T09:58:32;7.47;;;5.63;;
27225;SDS011;14732;51.074;3.788;2023-06-14T10:01:02;6.07;;;5.47;;
27225;SDS011;14732;51.074;3.788;2023-06-14T10:03:30;9.75;;;5.13;;
27225;SDS011;14732;51.074;3.788;2023-06-14T10:05:58;13.20;;;5.50;;
27225;SDS011;14732;51.074;3.788;2023-06-14T10:08:32;12.05;;;5.43;;
27225;SDS011;14732;51.074;3.788;2023-06-14T10:11:07;6.15;;;5.47;;
27225;SDS011;14732;51.074;3.788;2023-06-14T10:13:36;6.63;;;5.20;;
27225;SDS011;14732;51.074;3.788;2023-06-14T10:16:07;12.35;;;5.50;;
27225;SDS011;14732;51.074;3.788;2023-06-14T10:18:45;6.93;;;5.93;;
27225;SDS011;14732;51.074;3.788;2023-06-14T10:21:55;7.05;;;5.18;;
27225;SDS011;14732;51.074;3.788;2023-06-14T10:24:30;6.30;;;4.90;;
27225;SDS011;14732;51.074;3.788;2023-06-14T10:27:01;5.65;;;5.10;;
27225;SDS011;14732;51.074;3.788;2023-06-14T10:29:27;9.18;;;5.40;;
27225;SDS011;14732;51.074;3.788;2023-06-14T10:31:57;9.38;;;5.03;;
27225;SDS011;14732;51.074;3.788;2023-06-14T10:34:26;11.25;;;5.47;;
27225;SDS011;14732;51.074;3.788;2023-06-14T10:39:33;5.80;;;5.30;;
27225;SDS011;14732;51.074;3.788;2023-06-14T10:42:11;9.18;;;5.70;;
27225;SDS011;14732;51.074;3.788;2023-06-14T10:44:54;7.82;;;5.03;;
27225;SDS011;14732;51.074;3.788;2023-06-14T10:47:22;11.00;;;5.75;;
27225;SDS011;14732;51.074;3.788;2023-06-14T10:49:52;9.15;;;5.57;;
27225;SDS011;14732;51.074;3.788;2023-06-14T10:52:23;9.13;;;5.60;;
27225;SDS011;14732;51.074;3.788;2023-06-14T10:55:06;9.82;;;5.80;;
27225;SDS011;14732;51.074;3.788;2023-06-14T10:57:42;8.43;;;5.20;;
27225;SDS011;14732;51.074;3.788;2023-06-14T11:00:09;10.77;;;5.60;;
27225;SDS011;14732;51.074;3.788;2023-06-14T11:05:19;9.50;;;5.88;;
27225;SDS011;14732;51.074;3.788;2023-06-14T11:10:49;6.10;;;5.50;;
27225;SDS011;14732;51.074;3.788;2023-06-14T11:13:19;11.07;;;5.70;;
27225;SDS011;14732;51.074;3.788;2023-06-14T11:15:45;7.85;;;5.30;;
27225;SDS011;14732;51.074;3.788;2023-06-14T11:18:13;7.05;;;4.95;;
27225;SDS011;14732;51.074;3.788;2023-06-14T11:20:42;7.80;;;5.43;;
27225;SDS011;14732;51.074;3.788;2023-06-14T11:23:11;10.35;;;5.45;;
27225;SDS011;14732;51.074;3.788;2023-06-14T11:25:36;7.85;;;5.22;;
27225;SDS011;14732;51.074;3.788;2023-06-14T11:28:02;12.50;;;5.95;;
27225;SDS011;14732;51.074;3.788;2023-06-14T11:30:28;8.48;;;5.47;;
27225;SDS011;14732;51.074;3.788;2023-06-14T11:32:55;8.18;;;5.55;;
27225;SDS011;14732;51.074;3.788;2023-06-14T11:35:24;7.90;;;5.43;;
27225;SDS011;14732;51.074;3.788;2023-06-14T11:37:55;6.68;;;5.22;;
27225;SDS011;14732;51.074;3.788;2023-06-14T11:40:24;9.98;;;5.60;;
27225;SDS011;14732;51.074;3.788;2023-06-14T11:42:59;6.80;;;4.65;;
27225;SDS011;14732;51.074;3.788;2023-06-14T11:45:30;8.32;;;4.90;;
27225;SDS011;14732;51.074;3.788;2023-06-14T11:47:57;7.55;;;5.05;;
27225;SDS011;14732;51.074;3.788;2023-06-14T11:50:24;7.40;;;4.78;;
27225;SDS011;14732;51.074;3.788;2023-06-14T11:52:57;5.70;;;5.00;;
27225;SDS011;14732;51.074;3.788;2023-06-14T11:55:35;9.40;;;5.40;;
27225;SDS011;14732;51.074;3.788;2023-06-14T11:58:10;6.40;;;5.35;;
27225;SDS011;14732;51.074;3.788;2023-06-14T12:00:37;8.48;;;5.10;;
27225;SDS011;14732;51.074;3.788;2023-06-14T12:03:03;7.05;;;5.47;;
27225;SDS011;14732;51.074;3.788;2023-06-14T12:05:29;8.98;;;4.90;;
27225;SDS011;14732;51.074;3.788;2023-06-14T12:07:59;7.53;;;5.00;;
27225;SDS011;14732;51.074;3.788;2023-06-14T12:10:28;6.78;;;4.97;;
27225;SDS011;14732;51.074;3.788;2023-06-14T12:12:58;7.95;;;5.18;;
27225;SDS011;14732;51.074;3.788;2023-06-14T12:15:27;6.93;;;5.43;;
27225;SDS011;14732;51.074;3.788;2023-06-14T12:17:55;11.70;;;5.28;;
27225;SDS011;14732;51.074;3.788;2023-06-14T12:20:29;9.23;;;5.47;;
27225;SDS011;14732;51.074;3.788;2023-06-14T12:22:56;8.80;;;5.40;;
27225;SDS011;14732;51.074;3.788;2023-06-14T12:27:53;8.80;;;4.97;;
27225;SDS011;14732;51.074;3.788;2023-06-14T12:30:20;6.85;;;5.50;;
27225;SDS011;14732;51.074;3.788;2023-06-14T12:32:45;7.07;;;4.97;;
27225;SDS011;14732;51.074;3.788;2023-06-14T12:35:11;8.15;;;5.43;;
27225;SDS011;14732;51.074;3.788;2023-06-14T12:37:37;8.75;;;5.28;;
27225;SDS011;14732;51.074;3.788;2023-06-14T12:40:03;6.47;;;5.18;;
27225;SDS011;14732;51.074;3.788;2023-06-14T12:42:30;8.93;;;5.57;;
27225;SDS011;14732;51.074;3.788;2023-06-14T12:44:56;9.82;;;5.38;;
27225;SDS011;14732;51.074;3.788;2023-06-14T12:47:22;7.40;;;5.10;;
27225;SDS011;14732;51.074;3.788;2023-06-14T12:49:48;7.85;;;5.15;;
27225;SDS011;14732;51.074;3.788;2023-06-14T12:52:13;10.93;;;5.18;;
27225;SDS011;14732;51.074;3.788;2023-06-14T12:54:39;9.32;;;4.95;;
27225;SDS011;14732;51.074;3.788;2023-06-14T12:57:06;8.10;;;5.28;;
27225;SDS011;14732;51.074;3.788;2023-06-14T12:59:32;9.68;;;5.15;;
27225;SDS011;14732;51.074;3.788;2023-06-14T13:02:19;11.18;;;5.22;;
27225;SDS011;14732;51.074;3.788;2023-06-14T13:04:47;8.57;;;5.30;;
27225;SDS011;14732;51.074;3.788;2023-06-14T13:07:14;9.15;;;4.90;;
27225;SDS011;14732;51.074;3.788;2023-06-14T13:09:40;5.60;;;4.95;;
27225;SDS011;14732;51.074;3.788;2023-06-14T13:12:07;7.13;;;5.15;;
27225;SDS011;14732;51.074;3.788;2023-06-14T13:14:36;8.75;;;5.28;;
27225;SDS011;14732;51.074;3.788;2023-06-14T13:17:02;8.70;;;4.88;;
27225;SDS011;14732;51.074;3.788;2023-06-14T13:19:28;12.45;;;4.78;;
27225;SDS011;14732;51.074;3.788;2023-06-14T13:21:53;7.10;;;4.88;;
27225;SDS011;14732;51.074;3.788;2023-06-14T13:24:20;8.40;;;5.00;;
27225;SDS011;14732;51.074;3.788;2023-06-14T13:26:45;6.75;;;4.57;;
27225;SDS011;14732;51.074;3.788;2023-06-14T13:29:11;8.98;;;5.18;;
27225;SDS011;14732;51.074;3.788;2023-06-14T13:31:37;7.93;;;5.55;;
27225;SDS011;14732;51.074;3.788;2023-06-14T13:34:02;12.98;;;4.88;;
27225;SDS011;14732;51.074;3.788;2023-06-14T13:36:29;8.43;;;5.28;;
27225;SDS011;14732;51.074;3.788;2023-06-14T13:39:12;6.85;;;4.47;;
27225;SDS011;14732;51.074;3.788;2023-06-14T13:41:40;6.75;;;5.38;;
27225;SDS011;14732;51.074;3.788;2023-06-14T13:44:07;8.38;;;4.35;;
27225;SDS011;14732;51.074;3.788;2023-06-14T13:46:36;7.00;;;4.30;;
27225;SDS011;14732;51.074;3.788;2023-06-14T13:49:02;10.85;;;4.97;;
27225;SDS011;14732;51.074;3.788;2023-06-14T13:51:30;7.15;;;4.60;;
27225;SDS011;14732;51.074;3.788;2023-06-14T13:53:55;8.40;;;4.35;;
27225;SDS011;14732;51.074;3.788;2023-06-14T13:56:22;8.45;;;4.20;;
27225;SDS011;14732;51.074;3.788;2023-06-14T13:58:49;5.65;;;4.50;;
27225;SDS011;14732;51.074;3.788;2023-06-14T14:01:15;6.80;;;4.65;;
27225;SDS011;14732;51.074;3.788;2023-06-14T14:03:42;10.00;;;4.15;;
27225;SDS011;14732;51.074;3.788;2023-06-14T14:06:10;6.18;;;4.20;;
27225;SDS011;14732;51.074;3.788;2023-06-14T14:08:35;6.38;;;4.32;;
27225;SDS011;14732;51.074;3.788;2023-06-14T14:11:01;9.52;;;4.00;;
27225;SDS011;14732;51.074;3.788;2023-06-14T14:13:28;8.85;;;3.78;;
27225;SDS011;14732;51.074;3.788;2023-06-14T14:15:56;6.33;;;4.20;;
27225;SDS011;14732;51.074;3.788;2023-06-14T14:18:24;5.38;;;3.65;;
27225;SDS011;14732;51.074;3.788;2023-06-14T14:20:50;9.20;;;3.80;;
27225;SDS011;14732;51.074;3.788;2023-06-14T14:23:17;7.43;;;4.00;;
27225;SDS011;14732;51.074;3.788;2023-06-14T14:25:45;8.30;;;3.93;;
27225;SDS011;14732;51.074;3.788;2023-06-14T14:28:12;6.85;;;3.88;;
27225;SDS011;14732;51.074;3.788;2023-06-14T14:30:44;5.90;;;3.80;;
27225;SDS011;14732;51.074;3.788;2023-06-14T14:33:12;6.82;;;3.60;;
27225;SDS011;14732;51.074;3.788;2023-06-14T14:35:42;3.95;;;3.55;;
27225;SDS011;14732;51.074;3.788;2023-06-14T14:38:12;7.05;;;3.75;;
27225;SDS011;14732;51.074;3.788;2023-06-14T14:40:41;10.88;;;3.42;;
27225;SDS011;14732;51.074;3.788;2023-06-14T14:43:08;10.05;;;3.55;;
27225;SDS011;14732;51.074;3.788;2023-06-14T14:45:34;6.93;;;3.20;;
27225;SDS011;14732;51.074;3.788;2023-06-14T14:48:01;4.68;;;2.92;;
27225;SDS011;14732;51.074;3.788;2023-06-14T14:50:29;6.47;;;2.88;;
27225;SDS011;14732;51.074;3.788;2023-06-14T14:52:57;5.10;;;3.20;;
27225;SDS011;14732;51.074;3.788;2023-06-14T14:55:23;7.43;;;3.08;;
27225;SDS011;14732;51.074;3.788;2023-06-14T14:57:50;6.80;;;3.60;;
27225;SDS011;14732;51.074;3.788;2023-06-14T15:00:17;7.20;;;3.05;;
27225;SDS011;14732;51.074;3.788;2023-06-14T15:02:43;4.78;;;2.70;;
27225;SDS011;14732;51.074;3.788;2023-06-14T15:05:10;5.88;;;2.40;;
27225;SDS011;14732;51.074;3.788;2023-06-14T15:07:36;2.97;;;2.17;;